Terminal Aerodrome Forecast
Issued by NWS

Home | Current Version | Previous Version | Text Only | Print | Product List | Glossary On
Versions: 1 2 3 4 5 6 7 8 9 10 11 12 13 14 15 16 17 18 19 20 21 22 23 24 25 26 27 28 29 30 31 32 33 34 35 36 37 38 39
048
FTUS43 KABR 250301 AAA
TAFATY
TAF AMD
KATY 250301Z 2503/2524 20010KT P6SM SCT200
      TEMPO 2503/2505 BKN006
     FM250500 23014KT P6SM SKC
     FM251400 28015KT P6SM OVC015
     FM251800 31022G32KT P6SM OVC025=

USA.gov is the U.S. government's official web portal to all federal, state and local government web resources and services.